Livermore, CA

1:00 PM PST on February 13, 2016 (GMT -0800)
RAWS | | Change Station
CLOSE
Current Station
Personal Weather Station
Location: Danville, CA
Elevation: 1948 ft
Nearby Weather Stations

Elev 1948 ft 37.82 °N, 121.78 °W | Updated 58 minutes ago

Clear
Clear
64.0 °F
Feels Like 64.0 °F
N
7.0
Wind Variable Wind from NW
Gusts 19.0 mph

Today
High -- | Low -- °F
--% Chance of Precip.
Yesterday
High -- | Low -- °F
Precip. -- in
Pressure 30.23 in
Visibility 10.0 miles
Clouds Clear
Dew Point 37.0 °F
Humidity 36%
Rainfall in
Snow Depth Not available.
6:59 AM 5:43 PM
Waxing Crescent, 34% visible
METAR KLVK 132053Z 00000KT 10SM CLR 20/08 A3023 RMK AO2 SLP237 T02000083 58014 $
Pressure 30.23 in
Visibility 10.0 miles
Clouds Clear
Dew Point 37.0 °F
Humidity 36%
Rainfall in
Snow Depth Not available.
6:59 AM 5:43 PM
Waxing Crescent, 34% visible
METAR KLVK 132053Z 00000KT 10SM CLR 20/08 A3023 RMK AO2 SLP237 T02000083 58014 $

10-Day Weather Forecast

Almanac

Astronomy

Feb. 13, 2016 Rise Set
Actual Time
Civil Twilight
Nautical Twilight
Astronomical Twilight
Moon
Length of Visible Light
Length of Day
Tomorrow will be .
, % of the Moon is Illuminated

Today's Extremes

State Highs State Lows

Community

WunderPhotos

Upload Photos

1,892,666 photos uploaded!

WunderBlog® & News

Nearby

Air Quality

  Air Quality AQ Index Pollutant
Not available.

Snow Depth

Station Depth Elevation

Earthquake Activity

City Distance Mag. Time & Date
Minimum magnitude displayed is 2.5.

Coastal Water Temperatures

Place Temperature

Stations

Nearby Weather Stations

Station Location Temp. Windchill Dew Point Humidity Wind Precip. Elev Updated Type
                   

Watches & Warnings

There are currently no watches in effect.